Weather History for KDMW - February, 2013

Change the Weather History Date:

Saturday, February 9, 2013

  Actual Average (KTHV) Record (KTHV)
Temperature  
Mean Temperature 30 °F -  
Max Temperature 35 °F 0 °F 61 °F (2001)
Min Temperature 24 °F - 1 °F (2000)
Degree Days  
Heating Degree Days 36    
Moisture  
Dew Point 16 °F    
Average Humidity 59    
Maximum Humidity 74    
Minimum Humidity 41    
Precipitation  
Precipitation 0.00 in - - ()
Sea Level Pressure  
Sea Level Pressure 30.18 in    
Wind  
Wind Speed 14 mph (NW)    
Max Wind Speed 26 mph    
Max Gust Speed 37 mph    
Visibility 10 miles    
Events      
Averages and records for this station are not official NWS values.
T = Trace of Precipitation, MM = Missing Value Source: NWS Daily Summary

Daily Weather History Graph

Daily Weather History Graph

Search for Another Location

Airport or City:

Trip Planner

Search our weather history database for the weather conditions in past years. The results will help you decide how hot, cold, wet, or windy it might be!

Date:

Astronomy

Feb. 09, 2013 Rise Set
Actual Time 7:07 AM EST 5:37 PM EST
Civil Twilight 6:39 AM EST 6:05 PM EST
Nautical Twilight 6:07 AM EST 6:37 PM EST
Astronomical Twilight 5:36 AM EST 7:08 PM EST
Moon 6:17 AM EST (2/9) 5:17 PM EST (2/9)
Length of Visible Light 11h 26m
Length of Day
10h 30m
Waning Crescent, 0% of the Moon is Illuminated
Feb 9
Waning Crescent
Feb 10
New
Feb 17
First Quarter
Feb 25
Full
Mar 4
Last Quarter

Hourly Weather History & Observations

Time (EST) Temp. Windchill Dew Point Humidity Pressure Visibility Wind Dir Wind Speed Gust Speed Precip Events Conditions
12:10 AM 28.4 °F 15.4 °F 21.2 °F 74% 29.91 in 10.0 mi NW 19.6 mph 36.8 mph N/A   Overcast
12:35 AM 28.4 °F 13.5 °F 19.4 °F 69% 29.92 in 10.0 mi WNW 26.5 mph 34.5 mph N/A   Unknown
12:55 AM 28.4 °F 13.8 °F 19.4 °F 69% 29.93 in 10.0 mi NW 25.3 mph 33.4 mph N/A   Unknown
1:15 AM 28.4 °F 16.2 °F 19.4 °F 69% 29.94 in 10.0 mi NW 17.3 mph 25.3 mph N/A   Unknown
1:35 AM 28.4 °F 15.4 °F 21.2 °F 74% 29.94 in 10.0 mi NW 19.6 mph 31.1 mph N/A   Unknown
1:55 AM 26.6 °F 14.7 °F 19.4 °F 74% 29.95 in 10.0 mi WNW 15.0 mph 27.6 mph N/A   Unknown
2:15 AM 26.6 °F 16.2 °F 19.4 °F 74% 29.96 in 10.0 mi NW 11.5 mph 19.6 mph N/A   Unknown
2:35 AM 26.6 °F 15.2 °F 19.4 °F 74% 29.97 in 10.0 mi NW 13.8 mph 20.7 mph N/A   Unknown
2:55 AM 26.6 °F 13.4 °F 19.4 °F 74% 29.98 in 10.0 mi NW 18.4 mph 27.6 mph N/A   Unknown
3:15 AM 26.6 °F 15.2 °F 17.6 °F 69% 29.98 in 10.0 mi NW 13.8 mph 23.0 mph N/A   Unknown
3:35 AM 26.6 °F 14.7 °F 17.6 °F 69% 29.99 in 10.0 mi NW 15.0 mph 25.3 mph N/A   Unknown
3:55 AM 26.6 °F 15.7 °F 17.6 °F 69% 30.00 in 10.0 mi NW 12.7 mph 19.6 mph N/A   Unknown
4:15 AM 26.6 °F 16.2 °F 17.6 °F 69% 30.02 in 10.0 mi NW 11.5 mph 19.6 mph N/A   Unknown
4:35 AM 26.6 °F 15.7 °F 17.6 °F 69% 30.02 in 10.0 mi NW 12.7 mph 20.7 mph N/A   Unknown
4:55 AM 26.6 °F 15.7 °F 17.6 °F 69% 30.04 in 10.0 mi NW 12.7 mph 24.2 mph N/A   Unknown
5:15 AM 24.8 °F 11.1 °F 15.8 °F 69% 30.06 in 10.0 mi NW 18.4 mph 31.1 mph N/A   Unknown
5:35 AM 24.8 °F 9.3 °F 15.8 °F 69% 30.07 in 10.0 mi NW 24.2 mph 31.1 mph N/A   Unknown
5:55 AM 24.8 °F 11.1 °F 15.8 °F 69% 30.07 in 10.0 mi NW 18.4 mph 31.1 mph N/A   Unknown
6:15 AM 24.8 °F 11.1 °F 15.8 °F 69% 30.08 in 10.0 mi NW 18.4 mph 27.6 mph N/A   Unknown
6:35 AM 24.8 °F 11.5 °F 15.8 °F 69% 30.09 in 10.0 mi NW 17.3 mph 23.0 mph N/A   Unknown
6:55 AM 24.8 °F 11.9 °F 14.0 °F 64% 30.10 in 10.0 mi NW 16.1 mph 27.6 mph N/A   Unknown
7:15 AM 24.8 °F 12.9 °F 15.8 °F 69% 30.11 in 10.0 mi NNW 13.8 mph 25.3 mph N/A   Unknown
7:30 AM 24.8 °F 12.4 °F 15.8 °F 69% 30.12 in 10.0 mi NW 15.0 mph 28.8 mph N/A   Unknown
7:55 AM 24.8 °F 12.9 °F 14.0 °F 64% 30.14 in 10.0 mi NW 13.8 mph 19.6 mph N/A   Unknown
8:15 AM 24.8 °F 12.9 °F 15.8 °F 69% 30.16 in 10.0 mi NW 13.8 mph 28.8 mph N/A   Unknown
8:35 AM 24.8 °F 14.0 °F 15.8 °F 69% 30.16 in 10.0 mi NNW 11.5 mph 18.4 mph N/A   Unknown
8:55 AM 24.8 °F 12.9 °F 15.8 °F 69% 30.17 in 10.0 mi NW 13.8 mph 24.2 mph N/A   Unknown
9:15 AM 26.6 °F 15.2 °F 15.8 °F 64% 30.17 in 10.0 mi NW 13.8 mph 20.7 mph N/A   Unknown
9:35 AM 26.6 °F 15.2 °F 15.8 °F 64% 30.17 in 10.0 mi NNW 13.8 mph 27.6 mph N/A   Unknown
9:55 AM 26.6 °F 14.3 °F 15.8 °F 64% 30.18 in 10.0 mi NW 16.1 mph 26.5 mph N/A   Unknown
10:15 AM 26.6 °F 15.7 °F 14.0 °F 59% 30.18 in 10.0 mi NNW 12.7 mph 23.0 mph N/A   Unknown
10:35 AM 26.6 °F 15.2 °F 14.0 °F 59% 30.18 in 10.0 mi NNW 13.8 mph 25.3 mph N/A   Unknown
10:55 AM 26.6 °F 16.2 °F 15.8 °F 64% 30.19 in 10.0 mi NW 11.5 mph 19.6 mph N/A   Unknown
11:15 AM 26.6 °F 15.2 °F 14.0 °F 59% 30.20 in 10.0 mi NW 13.8 mph 23.0 mph N/A   Unknown
11:35 AM 28.4 °F 18.0 °F 15.8 °F 59% 30.21 in 10.0 mi NW 12.7 mph 23.0 mph N/A   Unknown
11:55 AM 28.4 °F 18.0 °F 14.0 °F 55% 30.21 in 10.0 mi NNW 12.7 mph 25.3 mph N/A   Unknown
12:15 PM 30.2 °F 18.5 °F 15.8 °F 55% 30.21 in 10.0 mi WNW 17.3 mph 23.0 mph N/A   Unknown
12:35 PM 30.2 °F 20.2 °F 14.0 °F 51% 30.20 in 10.0 mi NW 12.7 mph 19.6 mph N/A   Unknown
12:55 PM 32.0 °F 22.1 °F 15.8 °F 51% 30.21 in 10.0 mi WNW 13.8 mph 17.3 mph N/A   Unknown
1:15 PM 33.8 °F 25.3 °F 15.8 °F 48% 30.21 in 10.0 mi NNW 11.5 mph 21.9 mph N/A   Unknown
1:35 PM 33.8 °F 23.5 °F 15.8 °F 48% 30.20 in 10.0 mi WNW 16.1 mph 19.6 mph N/A   Unknown
1:55 PM 33.8 °F 27.0 °F 15.8 °F 48% 30.21 in 10.0 mi NW 8.1 mph 17.3 mph N/A   Unknown
2:15 PM 33.8 °F 26.4 °F 15.8 °F 48% 30.21 in 10.0 mi NW 9.2 mph 21.9 mph N/A   Unknown
2:35 PM 35.6 °F 26.2 °F 15.8 °F 44% 30.22 in 10.0 mi NW 15.0 mph 20.7 mph N/A   Unknown
2:55 PM 35.6 °F 28.0 °F 15.8 °F 44% 30.22 in 10.0 mi NW 10.4 mph - N/A   Unknown
3:15 PM 35.6 °F 29.2 °F 15.8 °F 44% 30.23 in 10.0 mi NNW 8.1 mph 16.1 mph N/A   Unknown
3:35 PM 35.6 °F 28.6 °F 15.8 °F 44% 30.24 in 10.0 mi NW 9.2 mph 19.6 mph N/A   Unknown
3:55 PM 35.6 °F 29.9 °F 15.8 °F 44% 30.25 in 10.0 mi NNW 6.9 mph - N/A   Unknown
4:15 PM 35.6 °F 28.0 °F 14.0 °F 41% 30.26 in 10.0 mi NW 10.4 mph - N/A   Unknown
4:35 PM 35.6 °F 28.6 °F 14.0 °F 41% 30.25 in 10.0 mi WNW 9.2 mph 17.3 mph N/A   Unknown
4:55 PM 35.6 °F 29.2 °F 14.0 °F 41% 30.26 in 10.0 mi NW 8.1 mph - N/A   Unknown
5:15 PM 35.6 °F 31.7 °F 15.8 °F 44% 30.26 in 10.0 mi NW 4.6 mph - N/A   Unknown
5:35 PM 33.8 °F 28.6 °F 15.8 °F 48% 30.27 in 10.0 mi NW 5.8 mph - N/A   Unknown
5:55 PM 33.8 °F 30.8 °F 15.8 °F 48% 30.28 in 10.0 mi NW 3.5 mph - N/A   Unknown
6:15 PM 32.0 °F 26.4 °F 15.8 °F 51% 30.29 in 10.0 mi WNW 5.8 mph - N/A   Unknown
6:35 PM 32.0 °F 25.6 °F 15.8 °F 51% 30.30 in 10.0 mi WNW 6.9 mph - N/A   Unknown
6:55 PM 32.0 °F 25.6 °F 14.0 °F 48% 30.31 in 10.0 mi WNW 6.9 mph - N/A   Unknown
7:15 PM 32.0 °F 24.2 °F 12.2 °F 44% 30.31 in 10.0 mi NW 9.2 mph - N/A   Unknown
7:35 PM 30.2 °F 25.4 °F 12.2 °F 47% 30.32 in 10.0 mi West 4.6 mph - N/A   Unknown
7:55 PM 30.2 °F 24.3 °F 12.2 °F 47% 30.32 in 10.0 mi WNW 5.8 mph - N/A   Unknown
8:15 PM 28.4 °F 24.6 °F 14.0 °F 55% 30.32 in 10.0 mi NW 3.5 mph - N/A   Unknown
8:35 PM 28.4 °F 24.6 °F 12.2 °F 51% 30.32 in 10.0 mi NW 3.5 mph - N/A   Unknown
8:55 PM 28.4 °F 24.6 °F 14.0 °F 55% 30.32 in 10.0 mi NW 3.5 mph - N/A   Unknown
9:15 PM 28.4 °F 24.6 °F 15.8 °F 59% 30.33 in 10.0 mi NW 3.5 mph - N/A   Unknown
9:35 PM 28.4 °F 23.3 °F 15.8 °F 59% 30.33 in 10.0 mi NW 4.6 mph - N/A   Unknown
9:55 PM 28.4 °F 23.3 °F 17.6 °F 64% 30.34 in 10.0 mi WNW 4.6 mph - N/A   Unknown
10:15 PM 28.4 °F 23.3 °F 15.8 °F 59% 30.35 in 10.0 mi WNW 4.6 mph - N/A   Unknown
10:35 PM 28.4 °F - 15.8 °F 59% 30.36 in 10.0 mi Calm Calm - N/A   Unknown
10:55 PM 28.4 °F - 15.8 °F 59% 30.35 in 10.0 mi Calm Calm - N/A   Unknown
11:15 PM 28.4 °F 24.6 °F 14.0 °F 55% 30.36 in 10.0 mi NW 3.5 mph - N/A   Unknown
11:35 PM 26.6 °F 22.6 °F 15.8 °F 64% 30.36 in 10.0 mi NW 3.5 mph - N/A   Unknown
11:55 PM 28.4 °F - 15.8 °F 59% 30.36 in 10.0 mi Calm Calm - N/A   Unknown